Impacts TAF Board INFO
FOR SITUATIONAL AWARENESS. NOT TO BE USED FOR FLIGHT PLANNING PURPOSES.
IDs:

KMDW - Chicago/Midway Intl, IL, US

Issued at 2325 UTC 12 Dec 2017
Updated at 0134 UTC 13 Dec 2017
Potential Impact None Slight Moderate High
Time<<14/02Z 14/03Z 14/04Z 14/05Z 14/06Z 14/07Z 14/08Z 14/09Z 14/10Z 14/11Z 14/12Z 14/13Z 14/14Z
Type PRVL
  [TEMP]  
PRVL
  [TEMP]  
PRVL
  [TEMP]  
PRVL
VIS 6
  [1.5]  
6
  [1.5]  
6
  [1.5]  
6
CIG 20
  [15]  
20
  [15]  
20
  [15]  
20
Cover OVC
  [BKN]  
OVC
  [BKN]  
OVC
  [BKN]  
OVC
FltCat MVFR
  [IFR]  
MVFR
  [IFR]  
MVFR
  [IFR]  
MVFR
WX -SHSN
  [-SN]  
-SHSN
  [-SN]  
-SHSN
  [-SN]  
-SHSN
WDir 350
[20]
350
[20]
350
[20]
350
WSpd 15
  [12]  
15
  [12]  
15
  [12]  
15
WGst 25
  [18]  
25
  [18]  
25
  [18]  
25

Raw TAF
KMDW 122325Z 1300/1406 26009KT P6SM SCT040 BKN080
  FM130700 20006KT P6SM SCT035 OVC060
  FM131100 17011KT P6SM OVC035
  TEMPO 1311/1315 2SM -SN SCT020 OVC030
  FM131500 21014G21KT P6SM SCT030 OVC060
  FM131800 23014G21KT 6SM -SN OVC025
  TEMPO 1319/1321 1 1/2SM -SN BKN015
  FM132100 31014G24KT P6SM OVC018
  FM140000 35015G25KT 6SM -SHSN OVC020
  TEMPO 1402/1405 02012G18KT 1 1/2SM -SN BKN015


METAR Board
Radar Display
Forecast Discussion

FOR SITUATIONAL AWARENESS. NOT TO BE USED FOR FLIGHT PLANNING PURPOSES.